createdAt,value
2017-08-26T00:02:29.033Z,37.10
2017-08-26T00:04:57.326Z,39.17
2017-08-26T00:07:24.899Z,37.10
2017-08-26T00:09:52.446Z,39.10
2017-08-26T00:12:19.969Z,38.23
2017-08-26T00:14:47.500Z,38.60
2017-08-26T00:17:15.030Z,37.00
2017-08-26T00:19:42.582Z,36.17
2017-08-26T00:22:10.132Z,36.40
2017-08-26T00:24:37.656Z,36.90
2017-08-26T00:27:05.181Z,37.83
2017-08-26T00:29:32.709Z,36.70
2017-08-26T00:32:00.278Z,35.77
2017-08-26T00:34:27.805Z,34.23
2017-08-26T00:36:55.335Z,38.37
2017-08-26T00:39:22.857Z,38.03
2017-08-26T00:41:50.398Z,37.90
2017-08-26T00:44:17.966Z,38.07
2017-08-26T00:46:45.506Z,38.37
2017-08-26T00:49:13.041Z,37.97
2017-08-26T00:51:41.339Z,39.07
2017-08-26T00:54:08.919Z,39.67
2017-08-26T00:56:36.574Z,40.80
2017-08-26T00:59:04.099Z,40.47
2017-08-26T01:01:31.622Z,38.07
2017-08-26T01:03:59.154Z,37.73
2017-08-26T01:06:26.683Z,40.00
2017-08-26T01:08:54.239Z,38.67
2017-08-26T01:11:21.765Z,36.27
2017-08-26T01:13:49.300Z,38.60
2017-08-26T01:16:16.824Z,38.23
2017-08-26T01:18:44.354Z,37.53
2017-08-26T01:21:11.905Z,39.13
2017-08-26T01:23:39.429Z,39.13
2017-08-26T01:26:06.955Z,37.23
2017-08-26T01:28:34.541Z,38.97
2017-08-26T01:31:02.094Z,37.03
2017-08-26T01:33:29.648Z,39.20
2017-08-26T01:35:57.174Z,38.00
2017-08-26T01:38:25.466Z,35.87
2017-08-26T01:40:53.002Z,38.47
2017-08-26T01:43:21.302Z,41.10
2017-08-26T01:45:48.845Z,38.73
2017-08-26T01:48:16.373Z,35.33
2017-08-26T01:50:43.903Z,36.37
2017-08-26T01:53:11.431Z,37.67
2017-08-26T01:55:38.967Z,36.80
2017-08-26T01:58:07.281Z,36.40
2017-08-26T02:00:34.813Z,36.83
2017-08-26T02:03:02.346Z,36.03
2017-08-26T02:05:29.874Z,35.27
2017-08-26T02:07:57.398Z,34.57
2017-08-26T02:10:24.982Z,38.43
2017-08-26T02:12:52.513Z,37.40
2017-08-26T02:15:20.038Z,35.63
2017-08-26T02:17:47.561Z,34.00
2017-08-26T02:20:15.109Z,36.70
2017-08-26T02:22:42.670Z,35.33
2017-08-26T02:25:10.194Z,38.03
2017-08-26T02:27:37.723Z,34.97
2017-08-26T02:30:05.250Z,38.00
2017-08-26T02:32:32.777Z,36.60
2017-08-26T02:35:00.334Z,37.07
2017-08-26T02:37:27.862Z,35.23
2017-08-26T02:39:55.385Z,37.83
2017-08-26T02:42:22.910Z,37.00
2017-08-26T02:44:50.438Z,36.90
2017-08-26T02:47:17.990Z,36.70
2017-08-26T02:49:45.523Z,36.53
2017-08-26T02:52:13.050Z,38.10
2017-08-26T02:54:40.587Z,39.17
2017-08-26T02:57:08.190Z,38.93
2017-08-26T02:59:35.741Z,36.67
2017-08-26T03:02:03.266Z,37.97
2017-08-26T03:04:30.798Z,39.37
2017-08-26T03:06:58.321Z,37.93
2017-08-26T03:09:25.837Z,40.43
2017-08-26T03:11:53.390Z,39.57
2017-08-26T03:14:20.930Z,41.20
2017-08-26T03:16:48.461Z,37.97
2017-08-26T03:19:15.986Z,36.67
2017-08-26T03:21:43.521Z,37.90
2017-08-26T03:24:11.074Z,38.23
2017-08-26T03:26:38.598Z,39.73
2017-08-26T03:29:06.121Z,37.80
2017-08-26T03:31:33.646Z,40.10
2017-08-26T03:34:01.176Z,39.27
2017-08-26T03:36:28.729Z,37.73
2017-08-26T03:38:56.250Z,38.43
2017-08-26T03:41:23.786Z,38.27
2017-08-26T03:43:51.317Z,38.37
2017-08-26T03:46:18.848Z,37.93
2017-08-26T03:48:46.405Z,38.07
2017-08-26T03:51:13.930Z,39.47
2017-08-26T03:53:41.460Z,36.90
2017-08-26T03:56:08.983Z,41.17
2017-08-26T03:58:36.514Z,39.43
2017-08-26T04:01:04.074Z,37.27
2017-08-26T04:03:31.601Z,38.90
2017-08-26T04:05:59.121Z,38.93
2017-08-26T04:08:26.650Z,39.70
2017-08-26T04:10:54.186Z,38.27
2017-08-26T04:13:21.743Z,38.53
2017-08-26T04:15:49.282Z,39.67
2017-08-26T04:18:16.811Z,38.93
2017-08-26T04:20:44.372Z,37.60
2017-08-26T04:23:11.894Z,39.07
2017-08-26T04:25:39.455Z,39.23
2017-08-26T04:28:07.751Z,37.03
2017-08-26T04:30:35.289Z,47.37
2017-08-26T04:33:02.818Z,53.90
2017-08-26T04:35:30.338Z,39.07
2017-08-26T04:37:57.889Z,37.57
2017-08-26T04:40:25.418Z,40.90
2017-08-26T04:42:52.945Z,41.60
2017-08-26T04:45:20.479Z,39.07
2017-08-26T04:47:47.997Z,37.53
2017-08-26T04:50:15.558Z,39.87
2017-08-26T04:52:43.086Z,39.27
2017-08-26T04:55:10.613Z,38.60
2017-08-26T04:57:38.137Z,38.27
2017-08-26T05:00:05.722Z,44.50
2017-08-26T05:02:33.286Z,41.67
2017-08-26T05:05:00.814Z,39.77
2017-08-26T05:07:28.337Z,41.33
2017-08-26T05:09:55.865Z,40.27
2017-08-26T05:12:23.389Z,40.17
2017-08-26T05:14:50.941Z,40.33
2017-08-26T05:17:18.470Z,42.77
2017-08-26T05:19:46.002Z,41.10
2017-08-26T05:22:13.526Z,45.60
2017-08-26T05:24:41.045Z,39.03
2017-08-26T05:27:08.601Z,40.53
2017-08-26T05:29:36.123Z,39.63
2017-08-26T05:32:03.650Z,39.60
2017-08-26T05:34:31.183Z,38.80
2017-08-26T05:36:58.810Z,41.90
2017-08-26T05:39:26.361Z,39.07
2017-08-26T05:41:54.074Z,40.27
2017-08-26T05:44:21.602Z,41.20
2017-08-26T05:46:49.129Z,41.07
2017-08-26T05:49:16.661Z,40.23
2017-08-26T05:51:44.222Z,39.57
2017-08-26T05:54:11.754Z,38.27
2017-08-26T05:56:39.275Z,40.70
2017-08-26T05:59:06.809Z,42.07
2017-08-26T06:01:34.344Z,39.77
2017-08-26T06:04:01.942Z,40.97
2017-08-26T06:06:29.462Z,40.23
2017-08-26T06:08:56.987Z,39.77
2017-08-26T06:11:24.618Z,42.17
2017-08-26T06:13:52.143Z,41.03
2017-08-26T06:16:19.674Z,40.50
2017-08-26T06:18:47.201Z,42.43
2017-08-26T06:21:14.727Z,42.10
2017-08-26T06:23:42.258Z,40.50
2017-08-26T06:26:09.788Z,42.03
2017-08-26T06:28:37.309Z,39.73
2017-08-26T06:31:04.834Z,41.67
2017-08-26T06:33:32.368Z,41.17
2017-08-26T06:35:59.890Z,41.77
2017-08-26T06:38:27.421Z,42.23
2017-08-26T06:40:55.713Z,39.47
2017-08-26T06:43:23.238Z,38.27
2017-08-26T06:45:50.761Z,39.23
2017-08-26T06:48:18.294Z,41.63
2017-08-26T06:50:45.821Z,40.13
2017-08-26T06:53:13.428Z,40.03
2017-08-26T06:55:40.961Z,38.20
2017-08-26T06:58:08.491Z,40.07
2017-08-26T07:00:36.049Z,39.07
2017-08-26T07:03:03.670Z,39.37
2017-08-26T07:05:31.189Z,38.37
2017-08-26T07:07:58.739Z,37.67
2017-08-26T07:10:27.043Z,39.23
2017-08-26T07:12:54.565Z,37.97
2017-08-26T07:15:22.119Z,36.07
2017-08-26T07:17:49.737Z,36.80
2017-08-26T07:20:17.263Z,37.27
2017-08-26T07:22:44.818Z,37.90
2017-08-26T07:25:12.357Z,36.13
2017-08-26T07:27:39.887Z,38.27
2017-08-26T07:30:07.439Z,39.20
2017-08-26T07:32:34.958Z,36.93
2017-08-26T07:35:02.487Z,39.03
2017-08-26T07:37:30.818Z,40.27
2017-08-26T07:39:58.373Z,41.67
2017-08-26T07:42:25.898Z,43.43
2017-08-26T07:44:53.458Z,38.70
2017-08-26T07:47:20.992Z,35.90
2017-08-26T07:49:48.521Z,40.50
2017-08-26T07:52:16.070Z,41.23
2017-08-26T07:54:43.630Z,39.50
2017-08-26T07:57:11.182Z,39.23
2017-08-26T07:59:38.708Z,36.00
2017-08-26T08:02:06.236Z,36.00
2017-08-26T08:04:33.766Z,30.83
2017-08-26T08:07:01.290Z,31.10
2017-08-26T08:09:28.877Z,31.00
2017-08-26T08:11:56.406Z,29.67
2017-08-26T08:14:23.937Z,28.47
2017-08-26T08:16:51.466Z,26.97
2017-08-26T08:19:18.990Z,39.93
2017-08-26T08:21:46.566Z,30.30
2017-08-26T08:24:14.103Z,28.23
2017-08-26T08:26:41.632Z,29.37
2017-08-26T08:29:09.165Z,32.00
2017-08-26T08:31:36.703Z,26.57
2017-08-26T08:34:04.250Z,29.13
2017-08-26T08:36:31.774Z,27.03
2017-08-26T08:38:59.313Z,26.33
2017-08-26T08:41:26.844Z,26.43
2017-08-26T08:43:54.364Z,24.20
2017-08-26T08:46:21.920Z,26.60
2017-08-26T08:48:49.444Z,26.77
2017-08-26T08:51:16.973Z,27.80
2017-08-26T08:53:44.501Z,31.47
2017-08-26T08:56:12.030Z,27.40
2017-08-26T08:58:39.594Z,25.10
2017-08-26T09:01:07.122Z,26.30
2017-08-26T09:03:34.653Z,24.47
2017-08-26T09:06:02.182Z,25.20
2017-08-26T09:08:29.718Z,22.07
2017-08-26T09:10:57.270Z,24.67
2017-08-26T09:13:24.805Z,24.07
2017-08-26T09:15:52.334Z,23.27
2017-08-26T09:18:19.869Z,24.10
2017-08-26T09:20:47.393Z,24.50
2017-08-26T09:23:14.942Z,23.23
2017-08-26T09:25:42.475Z,23.23
2017-08-26T09:28:10.009Z,26.13
2017-08-26T09:30:37.537Z,23.93
2017-08-26T09:33:05.067Z,22.13
2017-08-26T09:35:32.638Z,21.50
2017-08-26T09:38:00.161Z,22.00
2017-08-26T09:40:27.693Z,20.63
2017-08-26T09:42:55.217Z,19.73
2017-08-26T09:45:22.743Z,20.60
2017-08-26T09:47:50.405Z,18.97
2017-08-26T09:50:17.934Z,17.83
2017-08-26T09:52:45.466Z,18.77
2017-08-26T09:55:12.987Z,17.73
2017-08-26T09:57:40.514Z,17.80
2017-08-26T10:00:08.070Z,18.57
2017-08-26T10:02:35.606Z,18.73
2017-08-26T10:05:03.130Z,17.93
2017-08-26T10:07:30.662Z,18.20
2017-08-26T10:09:58.198Z,16.70
2017-08-26T10:12:25.745Z,16.70
2017-08-26T10:14:53.279Z,16.50
2017-08-26T10:17:20.822Z,16.37
2017-08-26T10:19:49.111Z,17.07
2017-08-26T10:22:16.635Z,15.90
2017-08-26T10:24:44.196Z,16.57
2017-08-26T10:27:11.727Z,16.27
2017-08-26T10:29:39.250Z,16.27
2017-08-26T10:32:06.788Z,17.30
2017-08-26T10:34:34.322Z,16.00
2017-08-26T10:37:01.900Z,16.60
2017-08-26T10:39:29.433Z,15.87
2017-08-26T10:41:56.962Z,16.30
2017-08-26T10:44:24.494Z,16.80
2017-08-26T10:46:52.020Z,15.30
2017-08-26T10:49:19.574Z,17.33
2017-08-26T10:51:47.107Z,15.67
2017-08-26T10:54:14.631Z,17.30
2017-08-26T10:56:42.159Z,17.10
2017-08-26T10:59:09.699Z,19.00
2017-08-26T11:01:37.265Z,17.47
2017-08-26T11:04:04.794Z,18.93
2017-08-26T11:06:32.325Z,18.13
2017-08-26T11:08:59.853Z,17.17
2017-08-26T11:11:27.373Z,16.70
2017-08-26T11:13:54.925Z,19.03
2017-08-26T11:16:22.482Z,17.63
2017-08-26T11:18:50.006Z,16.93
2017-08-26T11:21:17.533Z,17.87
2017-08-26T11:23:45.058Z,17.40
2017-08-26T11:26:12.610Z,17.97
2017-08-26T11:28:40.141Z,17.30
2017-08-26T11:31:07.694Z,17.30
2017-08-26T11:33:35.241Z,17.60
2017-08-26T11:36:02.771Z,18.90
2017-08-26T11:38:30.322Z,23.97
2017-08-26T11:40:57.850Z,17.70
2017-08-26T11:43:25.379Z,16.37
2017-08-26T11:45:52.909Z,16.43
2017-08-26T11:48:20.470Z,16.70
2017-08-26T11:50:48.030Z,17.30
2017-08-26T11:53:15.562Z,16.77
2017-08-26T11:55:43.090Z,15.73
2017-08-26T11:58:10.614Z,17.53
2017-08-26T12:00:38.145Z,17.27
2017-08-26T12:03:05.701Z,16.63
2017-08-26T12:05:33.226Z,15.80
2017-08-26T12:08:00.758Z,15.00
2017-08-26T12:10:28.286Z,15.43
2017-08-26T12:12:55.822Z,16.60
2017-08-26T12:15:23.398Z,16.30
2017-08-26T12:17:50.929Z,15.67
2017-08-26T12:20:18.479Z,16.63
2017-08-26T12:22:46.014Z,16.93
2017-08-26T12:25:13.546Z,18.67
2017-08-26T12:27:41.129Z,19.30
2017-08-26T12:30:08.654Z,19.10
2017-08-26T12:32:36.182Z,19.50
2017-08-26T12:35:03.711Z,19.90
2017-08-26T12:37:31.238Z,19.60
2017-08-26T12:39:58.794Z,19.70
2017-08-26T12:42:26.328Z,20.13
2017-08-26T12:44:53.938Z,19.67
2017-08-26T12:47:21.461Z,21.50
2017-08-26T12:49:48.990Z,21.60
2017-08-26T12:52:16.541Z,19.23
2017-08-26T12:54:44.078Z,19.47
2017-08-26T12:57:11.606Z,20.60
2017-08-26T12:59:39.134Z,19.97
2017-08-26T13:02:06.657Z,21.30
2017-08-26T13:04:34.206Z,24.33
2017-08-26T13:07:01.736Z,20.47
2017-08-26T13:09:29.262Z,20.83
2017-08-26T13:11:56.799Z,20.57
2017-08-26T13:14:24.326Z,22.53
2017-08-26T13:16:51.882Z,21.70
2017-08-26T13:19:19.405Z,21.10
2017-08-26T13:21:47.022Z,23.87
2017-08-26T13:24:14.550Z,23.60
2017-08-26T13:26:42.090Z,22.23
2017-08-26T13:29:09.650Z,22.40
2017-08-26T13:31:37.938Z,27.23
2017-08-26T13:34:05.539Z,23.80
2017-08-26T13:36:33.061Z,21.90
2017-08-26T13:39:00.586Z,23.60
2017-08-26T13:41:28.141Z,21.93
2017-08-26T13:43:56.505Z,22.50
2017-08-26T13:46:24.038Z,25.67
2017-08-26T13:48:51.570Z,22.70
2017-08-26T13:51:19.105Z,22.37
2017-08-26T13:53:46.662Z,23.50
2017-08-26T13:56:14.187Z,23.50
2017-08-26T13:58:41.718Z,23.33
2017-08-26T14:01:09.242Z,24.93
2017-08-26T14:03:36.794Z,23.20
2017-08-26T14:06:04.354Z,24.37
2017-08-26T14:08:31.877Z,25.37
2017-08-26T14:10:59.405Z,25.03
2017-08-26T14:13:26.982Z,22.53
2017-08-26T14:15:54.506Z,24.27
2017-08-26T14:18:22.106Z,24.33
2017-08-26T14:20:49.662Z,24.20
2017-08-26T14:23:17.190Z,26.90
2017-08-26T14:25:44.773Z,26.60
2017-08-26T14:28:12.305Z,26.63
2017-08-26T14:30:40.628Z,27.13
2017-08-26T14:33:08.150Z,27.00
2017-08-26T14:35:35.705Z,32.53
2017-08-26T14:38:03.238Z,30.23
2017-08-26T14:40:30.766Z,30.50
2017-08-26T14:42:58.318Z,31.17
2017-08-26T14:45:25.846Z,29.13
2017-08-26T14:47:53.374Z,28.70
2017-08-26T14:50:20.906Z,29.70
2017-08-26T14:52:48.435Z,27.53
2017-08-26T14:55:15.987Z,30.80
2017-08-26T14:57:43.564Z,29.37
2017-08-26T15:00:11.094Z,31.97
2017-08-26T15:02:38.622Z,25.03
2017-08-26T15:05:06.151Z,24.77
2017-08-26T15:07:33.707Z,24.47
2017-08-26T15:10:01.234Z,26.40
2017-08-26T15:12:28.822Z,25.07
2017-08-26T15:14:56.350Z,25.30
2017-08-26T15:17:23.877Z,24.70
2017-08-26T15:19:51.442Z,21.83
2017-08-26T15:22:19.738Z,23.40
2017-08-26T15:24:47.271Z,21.97
2017-08-26T15:27:14.796Z,21.90
2017-08-26T15:29:42.335Z,20.00
2017-08-26T15:32:09.882Z,20.63
2017-08-26T15:34:37.410Z,20.80
2017-08-26T15:37:04.933Z,18.63
2017-08-26T15:39:32.462Z,19.73
2017-08-26T15:42:00.030Z,19.40
2017-08-26T15:44:27.585Z,19.13
2017-08-26T15:46:55.120Z,19.47
2017-08-26T15:49:22.654Z,32.80
2017-08-26T15:51:50.197Z,21.43
2017-08-26T15:54:17.734Z,20.07
2017-08-26T15:56:45.302Z,21.27
2017-08-26T15:59:12.841Z,19.90
2017-08-26T16:01:40.694Z,16.43
2017-08-26T16:04:08.226Z,16.70
2017-08-26T16:06:35.758Z,17.67
2017-08-26T16:09:03.314Z,20.03
2017-08-26T16:11:30.862Z,20.07
2017-08-26T16:13:58.395Z,18.23
2017-08-26T16:16:25.926Z,19.20
2017-08-26T16:18:53.458Z,20.20
2017-08-26T16:21:21.024Z,21.83
2017-08-26T16:23:48.558Z,20.50
2017-08-26T16:26:16.114Z,21.20
2017-08-26T16:28:43.645Z,23.23
2017-08-26T16:31:11.180Z,21.03
2017-08-26T16:33:38.741Z,22.00
2017-08-26T16:36:06.281Z,22.27
2017-08-26T16:38:33.819Z,25.23
2017-08-26T16:41:01.346Z,23.10
2017-08-26T16:43:28.882Z,19.30
2017-08-26T16:45:56.439Z,21.30
2017-08-26T16:48:23.965Z,22.97
2017-08-26T16:50:51.502Z,23.03
2017-08-26T16:53:19.030Z,23.53
2017-08-26T16:55:46.558Z,20.30
2017-08-26T17:00:47.938Z,26.70
2017-08-26T17:03:15.517Z,21.60
2017-08-26T17:05:43.045Z,22.33
2017-08-26T17:08:10.582Z,22.97
2017-08-26T17:10:38.135Z,23.23
2017-08-26T17:13:05.663Z,22.27
2017-08-26T17:15:33.226Z,23.03
2017-08-26T17:18:00.756Z,24.57
2017-08-26T17:20:28.281Z,23.67
2017-08-26T17:22:56.570Z,24.00
2017-08-26T17:25:24.098Z,26.70
2017-08-26T17:27:51.821Z,28.30
2017-08-26T17:30:19.358Z,27.93
2017-08-26T17:32:46.877Z,42.13
2017-08-26T17:35:14.406Z,24.90
2017-08-26T17:37:41.938Z,33.43
2017-08-26T17:40:09.501Z,32.83
2017-08-26T17:42:37.017Z,24.03
2017-08-26T17:45:04.551Z,25.80
2017-08-26T17:47:32.097Z,29.73
2017-08-26T17:49:59.658Z,25.73
2017-08-26T17:52:27.212Z,26.23
2017-08-26T17:54:54.737Z,26.00
2017-08-26T17:57:22.266Z,30.67
2017-08-26T17:59:49.807Z,27.83
2017-08-26T18:02:17.359Z,26.97
2017-08-26T18:04:45.305Z,26.33
2017-08-26T18:07:12.836Z,25.83
2017-08-26T18:09:40.373Z,27.00
2017-08-26T18:12:07.902Z,25.57
2017-08-26T18:14:35.445Z,26.90
2017-08-26T18:17:03.006Z,27.40
2017-08-26T18:19:30.554Z,29.03
2017-08-26T18:21:58.107Z,28.47
2017-08-26T18:24:25.683Z,28.33
2017-08-26T18:26:53.222Z,29.23
2017-08-26T18:29:20.770Z,29.80
2017-08-26T18:31:48.297Z,29.83
2017-08-26T18:34:15.910Z,29.47
2017-08-26T18:36:43.443Z,29.60
2017-08-26T18:39:11.037Z,30.93
2017-08-26T18:41:39.353Z,30.77
2017-08-26T18:44:06.889Z,40.27
2017-08-26T18:46:34.422Z,33.60
2017-08-26T18:49:01.984Z,35.83
2017-08-26T18:51:29.537Z,35.67
2017-08-26T18:53:57.098Z,32.13
2017-08-26T18:56:24.662Z,35.20
2017-08-26T18:58:52.195Z,37.63
2017-08-26T19:01:19.738Z,37.80
2017-08-26T19:03:47.278Z,34.83
2017-08-26T19:06:14.838Z,34.27
2017-08-26T19:08:42.370Z,31.30
2017-08-26T19:11:09.910Z,34.03
2017-08-26T19:13:37.438Z,36.13
2017-08-26T19:16:04.971Z,33.43
2017-08-26T19:18:32.530Z,38.43
2017-08-26T19:21:00.055Z,37.37
2017-08-26T19:23:27.577Z,37.10
2017-08-26T19:25:55.138Z,38.43
2017-08-26T19:28:22.713Z,36.23
2017-08-26T19:30:50.262Z,37.30
2017-08-26T19:33:17.793Z,36.20
2017-08-26T19:35:46.087Z,40.80
2017-08-26T19:38:13.614Z,70.47
2017-08-26T19:40:41.141Z,48.83
2017-08-26T19:43:08.695Z,40.33
2017-08-26T19:45:36.217Z,38.37
2017-08-26T19:48:03.745Z,35.43
2017-08-26T19:50:31.273Z,38.73
2017-08-26T19:52:58.802Z,37.13
2017-08-26T19:55:26.358Z,36.93
2017-08-26T19:57:53.885Z,37.33
2017-08-26T20:00:21.410Z,38.43
2017-08-26T20:02:48.954Z,37.37
2017-08-26T20:05:16.479Z,38.23
2017-08-26T20:07:44.044Z,37.30
2017-08-26T20:10:11.586Z,60.90
2017-08-26T20:12:39.113Z,38.50
2017-08-26T20:15:06.652Z,39.80
2017-08-26T20:17:34.174Z,38.27
2017-08-26T20:20:01.722Z,39.77
2017-08-26T20:22:29.324Z,42.10
2017-08-26T20:24:56.855Z,40.20
2017-08-26T20:27:24.387Z,38.07
2017-08-26T20:29:51.914Z,41.80
2017-08-26T20:32:19.455Z,42.13
2017-08-26T20:34:46.982Z,39.97
2017-08-26T20:37:14.517Z,46.93
2017-08-26T20:39:42.142Z,50.20
2017-08-26T20:42:09.690Z,49.77
2017-08-26T20:44:37.239Z,59.33
2017-08-26T20:47:04.767Z,49.00
2017-08-26T20:49:33.061Z,44.67
2017-08-26T20:52:00.597Z,60.53
2017-08-26T20:54:28.145Z,44.20
2017-08-26T20:56:55.701Z,44.40
2017-08-26T20:59:23.234Z,44.03
2017-08-26T21:01:50.757Z,44.83
2017-08-26T21:04:18.289Z,47.17
2017-08-26T21:06:45.809Z,44.83
2017-08-26T21:09:13.370Z,75.50
2017-08-26T21:11:40.894Z,53.33
2017-08-26T21:14:08.414Z,47.87
2017-08-26T21:16:35.939Z,48.07
2017-08-26T21:19:03.461Z,47.57
2017-08-26T21:21:31.017Z,46.17
2017-08-26T21:23:58.546Z,46.40
2017-08-26T21:26:26.108Z,46.80
2017-08-26T21:28:53.633Z,48.50
2017-08-26T21:31:21.158Z,49.80
2017-08-26T21:33:48.713Z,50.23
2017-08-26T21:36:16.234Z,51.40
2017-08-26T21:38:43.766Z,51.30
2017-08-26T21:41:11.310Z,50.53
2017-08-26T21:43:38.842Z,52.60
2017-08-26T21:46:06.402Z,51.50
2017-08-26T21:48:33.962Z,55.03
2017-08-26T21:51:01.500Z,52.70
2017-08-26T21:53:29.044Z,52.37
2017-08-26T21:55:56.593Z,53.73
2017-08-26T21:58:24.142Z,60.37
2017-08-26T22:00:51.668Z,71.70
2017-08-26T22:03:19.214Z,53.70
2017-08-26T22:05:47.526Z,56.47
2017-08-26T22:08:15.067Z,55.23
2017-08-26T22:10:42.637Z,54.60
2017-08-26T22:13:10.161Z,52.30
2017-08-26T22:15:37.699Z,54.77
2017-08-26T22:18:05.233Z,54.20
2017-08-26T22:20:32.773Z,51.80
2017-08-26T22:23:00.333Z,53.90
2017-08-26T22:25:27.866Z,54.83
2017-08-26T22:27:55.388Z,54.03
2017-08-26T22:30:23.006Z,53.73
2017-08-26T22:32:50.532Z,54.33
2017-08-26T22:35:18.097Z,56.07
2017-08-26T22:37:45.635Z,63.43
2017-08-26T22:40:13.210Z,67.33
2017-08-26T22:42:40.734Z,63.60
2017-08-26T22:45:08.265Z,60.40
2017-08-26T22:47:35.922Z,58.53
2017-08-26T22:50:03.446Z,58.33
2017-08-26T22:52:30.974Z,56.57
2017-08-26T22:54:58.499Z,59.77
2017-08-26T22:57:26.024Z,51.57
2017-08-26T22:59:53.578Z,56.13
2017-08-26T23:02:21.103Z,57.70
2017-08-26T23:04:48.630Z,54.43
2017-08-26T23:07:16.162Z,54.47
2017-08-26T23:09:43.693Z,55.53
2017-08-26T23:12:12.014Z,55.23
2017-08-26T23:14:39.546Z,55.80
2017-08-26T23:17:07.078Z,51.87
2017-08-26T23:19:34.593Z,52.50
2017-08-26T23:22:02.127Z,55.27
2017-08-26T23:24:29.674Z,55.80
2017-08-26T23:26:57.206Z,50.93
2017-08-26T23:29:24.729Z,56.73
2017-08-26T23:31:52.254Z,53.50
2017-08-26T23:34:19.781Z,51.23
2017-08-26T23:36:47.338Z,51.50
2017-08-26T23:39:14.970Z,51.70
2017-08-26T23:41:42.498Z,51.77
2017-08-26T23:44:10.029Z,52.37
2017-08-26T23:46:37.555Z,50.47
2017-08-26T23:49:05.106Z,51.93
2017-08-26T23:51:32.641Z,53.50
2017-08-26T23:54:00.165Z,52.67
2017-08-26T23:56:27.690Z,54.17
2017-08-26T23:58:55.220Z,52.90
